Latest Weather Observations for Hindmarsh Island

IDS60801

Issued at 2:01 pm CST Monday 6 July 2015 (issued every 30 minutes, with the page automatically refreshed every 10 minutes)

About weather observations | Map of weather stations | Latest weather observations for SA | Other Formats
Station Details ID: 023894 Name: HINDMARSH ISLAND AWS Lat: -35.52 Lon: 138.82 Height: 11.0 m
Data from the previous 72 hours. | See also: Recent months at Hindmarsh Island
Date/Time
CST
Temp
°C
App
Temp
°C
Dew
Point
Rel
Hum
%
Delta-T
°C
Wind Press
QNH
hPa
Press
MSL
hPa
Rain
since 9 am
mm
Dir
 
Spd
km/h
Gust
km/h
Spd
kts
Gust
kts
06/02:00pm 14.6 10.1 8.5 67 3.1 W 22 33 12 18 1015.0 - 0.0
06/01:30pm 15.2 9.7 7.7 61 3.7 W 26 41 14 22 1015.1 - 0.0
06/01:00pm 15.6 9.3 7.6 59 4.0 WNW 30 43 16 23 1015.2 - 0.0
06/12:30pm 14.6 9.2 8.1 65 3.2 W 26 37 14 20 1015.4 - 0.0
06/12:00pm 15.5 9.9 7.3 58 4.1 W 26 35 14 19 1015.5 1015.5 0.0
06/11:30am 15.3 11.1 8.1 62 3.6 W 20 32 11 17 1015.8 - 0.0
06/11:00am 15.0 10.2 8.7 66 3.2 W 24 35 13 19 1015.8 - 0.0
06/10:30am 14.5 10.0 8.5 67 3.0 W 22 30 12 16 1015.7 - 0.0
06/10:00am 13.8 9.6 8.4 70 2.7 W 20 30 11 16 1015.7 - 0.0
06/09:30am 13.2 10.5 8.9 75 2.2 W 13 20 7 11 1015.5 - 0.0
06/09:00am 12.2 9.9 9.0 81 1.6 W 11 13 6 7 1015.2 1015.2 5.4
06/08:30am 11.0 8.2 8.6 85 1.2 NW 13 15 7 8 1015.1 - 5.4
06/08:00am 10.5 6.9 8.3 86 1.1 NW 17 20 9 11 1014.6 - 5.4
06/07:30am 10.0 6.6 7.8 86 1.1 NNW 15 17 8 9 1014.4 - 5.4
06/07:00am 10.2 6.5 7.8 85 1.2 NNW 17 20 9 11 1014.2 - 5.4
06/06:30am 10.2 6.8 7.8 85 1.2 NNW 15 20 8 11 1014.3 - 5.4
06/06:00am 10.5 6.5 8.3 86 1.1 NNW 19 28 10 15 1014.1 1014.1 5.4
06/05:30am 10.2 6.9 8.1 87 1.0 N 15 20 8 11 1014.1 - 5.4
06/05:00am 10.6 6.1 8.5 87 1.0 N 22 30 12 16 1013.8 - 5.4
06/04:30am 10.4 6.2 8.3 87 1.0 N 20 28 11 15 1014.5 - 5.0
06/04:00am 10.1 6.0 8.0 87 1.0 N 19 28 10 15 1014.3 - 4.8
06/03:30am 10.4 6.4 8.3 87 1.0 N 19 28 10 15 1014.9 - 4.4
06/03:00am 10.7 7.9 8.5 86 1.1 N 13 20 7 11 1015.2 1015.2 3.8
06/02:30am 11.2 8.5 8.8 85 1.2 W 13 17 7 9 1015.8 - 3.6
06/02:00am 11.4 6.4 8.1 80 1.6 W 24 33 13 18 1016.0 - 1.2
06/01:30am 13.0 8.5 5.9 62 3.3 W 19 28 10 15 1015.3 - 0.0
06/01:00am 13.4 10.1 4.8 56 4.0 W 11 17 6 9 1015.3 - 0.0
06/12:30am 13.3 9.6 4.5 55 4.0 NNW 13 20 7 11 1014.8 - 0.0
06/12:00am 12.7 9.0 4.7 58 3.7 NNW 13 17 7 9 1015.3 1015.3 0.0
 
Date/Time
CST
Temp
°C
App
Temp
°C
Dew
Point
Rel
Hum
%
Delta-T
°C
Wind Press
QNH
hPa
Press
MSL
hPa
Rain
since 9 am
mm
Dir
 
Spd
km/h
Gust
km/h
Spd
kts
Gust
kts
05/11:30pm 12.8 9.2 4.8 58 3.7 NNW 13 19 7 10 1015.6 - 0.0
05/11:00pm 13.3 8.9 4.5 55 4.0 N 17 22 9 12 1015.5 - 0.0
05/10:30pm 13.4 8.3 4.3 54 4.2 NNW 20 26 11 14 1015.7 - 0.0
05/10:00pm 13.4 8.6 4.6 55 4.0 NNW 19 26 10 14 1015.7 - 0.0
05/09:30pm 13.8 9.0 4.4 53 4.3 N 19 22 10 12 1016.0 - 0.0
05/09:00pm 14.3 8.4 4.0 50 4.7 NNW 24 35 13 19 1015.9 1015.9 0.0
05/08:30pm 14.7 8.8 4.1 49 4.9 NNW 24 39 13 21 1016.0 - 0.0
05/08:00pm 13.8 8.8 4.4 53 4.3 N 20 24 11 13 1015.9 - 0.0
05/07:30pm 14.0 9.2 4.6 53 4.3 N 19 26 10 14 1016.0 - 0.0
05/07:00pm 13.6 9.9 4.7 55 4.1 N 13 17 7 9 1016.2 - 0.0
05/06:30pm 13.1 9.6 5.3 59 3.6 NE 13 15 7 8 1016.3 - 0.0
05/06:00pm 14.2 11.0 5.0 54 4.3 N 11 17 6 9 1016.3 1016.3 0.0
05/05:30pm 14.5 11.3 5.0 53 4.4 NNW 11 17 6 9 1016.2 - 0.0
05/05:00pm 15.1 11.6 5.3 52 4.6 NNW 13 19 7 10 1016.5 - 0.0
05/04:30pm 16.2 12.8 5.8 50 5.0 NNW 13 17 7 9 1016.4 - 0.0
05/04:00pm 15.9 11.7 5.5 50 5.0 NNW 17 26 9 14 1016.5 - 0.0
05/03:30pm 16.1 13.5 6.3 52 4.8 NNW 9 15 5 8 1016.6 - 0.0
05/03:00pm 16.1 11.4 6.0 51 4.9 NW 20 28 11 15 1016.8 1016.8 0.0
05/02:30pm 16.2 10.2 5.2 48 5.2 NW 26 35 14 19 1016.8 - 0.0
05/02:00pm 16.2 8.0 4.9 47 5.3 NW 37 46 20 25 1016.6 - 0.0
05/01:30pm 16.6 9.2 4.9 46 5.6 NW 33 46 18 25 1016.6 - 0.0
05/01:00pm 16.8 10.1 5.4 47 5.5 NW 30 41 16 22 1017.1 - 0.0
05/12:30pm 16.4 9.3 5.7 49 5.2 NW 32 43 17 23 1017.6 - 0.0
05/12:00pm 16.4 10.2 6.0 50 5.0 NW 28 35 15 19 1018.0 1018.0 0.0
05/11:30am 16.2 9.9 5.8 50 5.0 NW 28 39 15 21 1018.4 - 0.0
05/11:00am 15.8 9.4 5.1 49 5.1 NW 28 35 15 19 1018.6 - 0.0
05/10:30am 15.7 11.0 5.9 52 4.7 NW 20 32 11 17 1019.0 - 0.0
05/10:00am 14.9 10.8 6.0 55 4.3 NNW 17 22 9 12 1019.1 - 0.0
05/09:30am 13.6 9.1 6.2 61 3.5 NNW 19 26 10 14 1019.1 - 0.0
05/09:00am 12.6 8.5 6.0 64 3.1 NNW 17 24 9 13 1019.3 1019.3 0.0
05/08:30am 11.3 7.8 5.6 68 2.6 N 13 22 7 12 1019.1 - 0.0
05/08:00am 9.9 6.4 5.5 74 2.0 N 13 19 7 10 1019.1 - 0.0
05/07:30am 9.1 5.9 5.1 76 1.8 N 11 13 6 7 1019.3 - 0.0
05/07:00am 8.8 5.6 5.2 78 1.6 N 11 13 6 7 1019.1 - 0.0
05/06:30am 9.3 6.2 5.5 77 1.7 N 11 13 6 7 1019.1 - 0.0
05/06:00am 9.1 6.0 5.5 78 1.6 N 11 15 6 8 1018.9 1018.9 0.0
05/05:30am 8.8 6.1 5.4 79 1.5 N 9 11 5 6 1019.0 - 0.0
05/05:00am 9.5 6.4 5.7 77 1.7 N 11 15 6 8 1019.1 - 0.0
05/04:30am 9.8 6.0 6.0 77 1.8 N 15 20 8 11 1019.0 - 0.0
05/04:00am 10.2 5.7 6.2 76 1.9 N 19 24 10 13 1019.1 - 0.0
05/03:30am 10.6 6.0 6.4 75 2.0 N 20 26 11 14 1019.2 - 0.0
05/03:00am 10.5 6.1 6.5 76 1.9 NNW 19 26 10 14 1019.4 1019.4 0.0
05/02:30am 10.1 5.7 6.4 78 1.7 NNW 19 24 10 13 1019.6 - 0.0
05/02:00am 10.0 6.3 6.3 78 1.7 NW 15 19 8 10 1019.7 - 0.0
05/01:30am 9.6 5.9 6.5 81 1.4 NNW 15 19 8 10 1019.7 - 0.0
05/01:00am 8.6 6.0 5.9 83 1.2 N 9 13 5 7 1019.9 - 0.0
05/12:30am 8.8 5.4 5.7 81 1.4 N 13 17 7 9 1020.3 - 0.0
05/12:00am 9.3 5.6 6.2 81 1.4 N 15 19 8 10 1020.4 1020.5 0.0
 
Date/Time
CST
Temp
°C
App
Temp
°C
Dew
Point
Rel
Hum
%
Delta-T
°C
Wind Press
QNH
hPa
Press
MSL
hPa
Rain
since 9 am
mm
Dir
 
Spd
km/h
Gust
km/h
Spd
kts
Gust
kts
04/11:30pm 9.4 5.7 6.1 80 1.5 N 15 17 8 9 1020.6 - 0.0
04/11:00pm 10.0 5.9 6.3 78 1.7 N 17 22 9 12 1020.8 - 0.0
04/10:30pm 9.6 6.3 6.3 80 1.5 N 13 17 7 9 1020.9 - 0.0
04/10:00pm 10.0 7.0 6.2 77 1.8 N 11 13 6 7 1021.2 - 0.0
04/09:30pm 10.0 6.6 6.0 76 1.8 N 13 17 7 9 1021.1 - 0.0
04/09:00pm 10.9 7.2 6.3 73 2.1 N 15 20 8 11 1021.4 1021.4 0.0
04/08:30pm 10.3 6.6 6.3 76 1.9 N 15 17 8 9 1021.4 - 0.0
04/08:00pm 10.6 7.6 6.0 73 2.1 N 11 13 6 7 1021.6 - 0.0
04/07:30pm 11.5 8.6 6.4 71 2.4 N 11 15 6 8 1021.8 - 0.0
04/07:00pm 11.3 8.7 6.0 70 2.5 N 9 11 5 6 1021.7 - 0.0
04/06:30pm 11.8 8.8 6.1 68 2.7 N 11 13 6 7 1021.7 - 0.0
04/06:00pm 12.8 9.9 6.4 65 3.0 NW 11 13 6 7 1021.6 1021.6 0.0
04/05:30pm 13.4 10.2 6.7 64 3.2 NW 13 15 7 8 1021.5 - 0.0
04/05:00pm 14.5 12.1 6.8 60 3.7 NW 9 11 5 6 1021.3 - 0.0
04/04:30pm 15.5 12.7 6.8 56 4.3 NW 11 15 6 8 1021.1 - 0.0
04/04:00pm 16.1 12.4 6.3 52 4.8 NW 15 17 8 9 1021.2 - 0.0
04/03:30pm 16.5 12.9 6.6 52 4.9 WNW 15 22 8 12 1021.3 - 0.0
04/03:00pm 17.0 13.8 6.8 51 5.0 NW 13 20 7 11 1021.2 1021.2 0.0
04/02:30pm 16.7 14.1 7.6 55 4.6 WNW 11 15 6 8 1021.3 - 0.0
04/02:00pm 16.9 13.5 7.8 55 4.6 NW 15 20 8 11 1021.5 - 0.0
04/01:30pm 16.5 13.9 7.7 56 4.4 NW 11 17 6 9 1021.8 - 0.0
04/01:00pm 16.5 13.9 7.7 56 4.4 NW 11 20 6 11 1022.3 - 0.0
04/12:30pm 16.0 12.1 7.2 56 4.4 NW 17 24 9 13 1022.7 - 0.0
04/12:00pm 15.5 12.1 7.5 59 4.0 NNW 15 19 8 10 1023.1 1023.1 0.0
04/11:30am 14.9 11.0 7.2 60 3.8 NNW 17 20 9 11 1023.5 - 0.0
04/11:00am 14.0 11.6 7.1 63 3.4 N 9 15 5 8 1023.9 - 0.0
04/10:30am 12.7 9.8 6.7 67 2.9 N 11 15 6 8 1024.1 - 0.0
04/10:00am 12.1 9.2 6.6 69 2.6 N 11 15 6 8 1024.1 - 0.0
04/09:30am 11.7 8.9 6.8 72 2.3 NNW 11 15 6 8 1024.2 - 0.0
04/09:00am 11.2 8.7 6.7 74 2.1 N 9 15 5 8 1024.1 1024.1 0.0
04/08:30am 10.9 8.0 6.5 74 2.1 N 11 13 6 7 1023.9 - 0.0
04/08:00am 10.5 7.6 6.3 75 2.0 N 11 13 6 7 1023.8 - 0.0
04/07:30am 9.3 7.1 6.2 81 1.4 N 7 9 4 5 1023.8 - 0.0
04/07:00am 9.3 7.1 6.2 81 1.4 N 7 9 4 5 1023.6 - 0.0
04/06:30am 9.0 6.4 5.9 81 1.4 N 9 11 5 6 1023.4 - 0.0
04/06:00am 9.0 6.4 5.9 81 1.4 N 9 11 5 6 1023.1 1023.1 0.0
04/05:30am 9.0 6.4 5.9 81 1.4 N 9 13 5 7 1022.9 - 0.0
04/05:00am 9.1 5.7 5.8 80 1.5 N 13 15 7 8 1022.9 - 0.0
04/04:30am 9.3 5.9 6.0 80 1.5 N 13 15 7 8 1022.9 - 0.0
04/04:00am 9.1 5.7 5.8 80 1.5 N 13 17 7 9 1023.1 - 0.0
04/03:30am 8.4 5.0 5.7 83 1.2 N 13 15 7 8 1023.2 - 0.0
04/03:00am 8.4 4.9 5.5 82 1.3 N 13 17 7 9 1023.2 1023.2 0.0
04/02:30am 8.5 5.8 5.4 81 1.4 N 9 11 5 6 1023.5 - 0.0
04/02:00am 8.7 6.0 5.4 80 1.5 N 9 11 5 6 1023.8 - 0.0
04/01:30am 9.0 6.3 5.7 80 1.5 N 9 13 5 7 1023.9 - 0.0
04/01:00am 9.1 6.0 5.5 78 1.6 N 11 13 6 7 1023.9 - 0.0
04/12:30am 9.0 5.9 5.4 78 1.6 N 11 11 6 6 1024.1 - 0.0
04/12:00am 8.9 6.1 5.1 77 1.7 N 9 11 5 6 1024.6 1024.6 0.0
 
Date/Time
CST
Temp
°C
App
Temp
°C
Dew
Point
Rel
Hum
%
Delta-T
°C
Wind Press
QNH
hPa
Press
MSL
hPa
Rain
since 9 am
mm
Dir
 
Spd
km/h
Gust
km/h
Spd
kts
Gust
kts
03/11:30pm 9.2 6.0 5.2 76 1.8 N 11 13 6 7 1024.8 - 0.0
03/11:00pm 9.2 6.0 5.2 76 1.8 N 11 13 6 7 1024.9 - 0.0
03/10:30pm 9.6 6.5 5.4 75 1.9 N 11 13 6 7 1025.2 - 0.0
03/10:00pm 9.9 6.8 5.5 74 2.0 N 11 15 6 8 1025.4 - 0.0
03/09:30pm 9.6 6.0 5.2 74 2.0 N 13 17 7 9 1025.5 - 0.0
03/09:00pm 9.7 6.9 5.3 74 2.0 N 9 13 5 7 1025.8 1025.8 0.0
03/08:30pm 9.7 6.6 5.5 75 1.9 N 11 15 6 8 1025.7 - 0.0
03/08:00pm 9.6 6.5 5.6 76 1.8 N 11 13 6 7 1025.8 - 0.0
03/07:30pm 9.5 6.8 5.7 77 1.7 N 9 11 5 6 1025.8 - 0.0
03/07:00pm 9.5 6.8 5.7 77 1.7 N 9 11 5 6 1025.8 - 0.0
03/06:30pm 9.7 7.0 5.7 76 1.8 N 9 11 5 6 1025.9 - 0.0
03/06:00pm 9.9 7.2 5.7 75 1.9 N 9 11 5 6 1025.7 1025.7 0.0
03/05:30pm 10.2 7.9 5.6 73 2.1 N 7 9 4 5 1025.8 - 0.0
03/05:00pm 10.5 7.7 5.3 70 2.4 NNE 9 9 5 5 1025.9 - 0.0
03/04:30pm 10.9 8.5 5.2 68 2.6 NNE 7 7 4 4 1025.9 - 0.0
03/04:00pm 11.4 9.1 5.5 67 2.7 NE 7 9 4 5 1026.1 - 0.0
03/03:30pm 11.5 8.3 5.2 65 2.9 ENE 11 13 6 7 1026.1 - 0.0
03/03:00pm 11.8 9.0 5.0 63 3.1 E 9 13 5 7 1026.3 1026.3 0.0
03/02:30pm 12.0 9.2 5.0 62 3.2 E 9 13 5 7 1026.3 - 0.0

Other Formats:

Comma delimited format used in spreadsheet applications
http://www.bom.gov.au/fwo/IDS60801/IDS60801.94677.axf

JavaScript Object Notation format (JSON) in row-major order
http://www.bom.gov.au/fwo/IDS60801/IDS60801.94677.json